Time;durP1;ratioP1;P1;durP2;ratioP2;P2;SDS_P1;SDS_P2;PMS_P1;PMS_P2;Temp;Humidity;BMP_temperature;BMP_pressure;BME280_temperature;BME280_humidity;BME280_pressure;Samples;Min_cycle;Max_cycle;Signal;HPM_P1;HPM_P2
2022/05/03 00:00:38;;;;;;;1.50;1.00;;;12.60;88.10;;;;;;5055648;28;20458;-76
2022/05/03 00:03:18;;;;;;;1.47;1.00;;;12.60;88.30;;;;;;5054283;28;20778;-76
2022/05/03 00:05:55;;;;;;;1.50;1.10;;;12.50;88.10;;;;;;5048916;28;20482;-76
2022/05/03 00:08:29;;;;;;;1.43;0.90;;;12.50;88.80;;;;;;5037194;28;20463;-76
2022/05/03 00:11:09;;;;;;;1.40;1.00;;;12.50;88.40;;;;;;5036464;28;20458;-76
2022/05/03 00:13:43;;;;;;;1.50;1.30;;;12.40;89.00;;;;;;5038153;28;20451;-76
2022/05/03 00:16:14;;;;;;;1.50;1.10;;;12.40;89.10;;;;;;5040721;28;20466;-76
2022/05/03 00:18:45;;;;;;;1.43;1.00;;;12.40;89.20;;;;;;5052712;28;20902;-76
2022/05/03 00:21:15;;;;;;;1.43;1.00;;;12.30;89.60;;;;;;5044396;28;20466;-76
2022/05/03 00:23:45;;;;;;;1.47;1.00;;;12.30;89.80;;;;;;5043356;28;20490;-76
2022/05/03 00:26:15;;;;;;;1.50;1.00;;;12.30;89.70;;;;;;5036515;28;20970;-76
2022/05/03 00:28:44;;;;;;;1.43;1.00;;;12.30;89.90;;;;;;5039954;28;20471;-75
2022/05/03 00:31:11;;;;;;;1.50;1.10;;;12.30;89.70;;;;;;5038878;28;20958;-75
2022/05/03 00:33:39;;;;;;;1.50;1.00;;;12.30;90.00;;;;;;5060961;28;20458;-76
2022/05/03 00:36:07;;;;;;;1.40;1.00;;;12.20;89.80;;;;;;5039203;28;21358;-76
2022/05/03 00:38:36;;;;;;;1.43;1.10;;;12.20;90.10;;;;;;5053359;28;20492;-75
2022/05/03 00:41:07;;;;;;;1.50;1.10;;;12.20;90.90;;;;;;5043156;28;20462;-75
2022/05/03 00:43:47;;;;;;;1.50;1.00;;;12.10;89.90;;;;;;5043661;28;20500;-76
2022/05/03 00:46:18;;;;;;;1.47;1.00;;;12.10;90.50;;;;;;5047103;28;20984;-76
2022/05/03 00:49:05;;;;;;;1.50;1.10;;;12.10;90.70;;;;;;5043230;28;20467;-76
2022/05/03 00:51:45;;;;;;;1.50;1.10;;;12.00;90.80;;;;;;5045583;28;20481;-76
2022/05/03 00:54:20;;;;;;;1.50;1.10;;;12.00;90.20;;;;;;5052830;28;20481;-76
2022/05/03 00:57:06;;;;;;;1.43;1.10;;;11.90;91.00;;;;;;5044830;28;20466;-75
2022/05/03 00:59:51;;;;;;;1.50;1.10;;;11.90;91.60;;;;;;5045683;28;20468;-75
2022/05/03 01:02:25;;;;;;;1.47;1.10;;;11.80;91.70;;;;;;5038756;28;20455;-75
2022/05/03 01:05:06;;;;;;;1.47;1.10;;;11.80;91.00;;;;;;5046260;28;20989;-76
2022/05/03 01:07:36;;;;;;;1.47;1.10;;;11.80;91.70;;;;;;5042763;28;20458;-76
2022/05/03 01:10:08;;;;;;;1.47;1.00;;;11.70;91.20;;;;;;5046410;28;20489;-76
2022/05/03 01:12:55;;;;;;;1.50;1.10;;;11.70;91.40;;;;;;5051526;28;20957;-75
2022/05/03 01:15:27;;;;;;;1.50;1.00;;;11.60;91.70;;;;;;5037689;28;21036;-75
2022/05/03 01:18:08;;;;;;;1.50;1.00;;;11.60;91.90;;;;;;5039566;28;20534;-75
2022/05/03 01:20:49;;;;;;;1.50;1.20;;;11.60;91.90;;;;;;5048030;28;20745;-75
2022/05/03 01:23:45;;;;;;;1.50;1.10;;;11.50;92.50;;;;;;5046650;28;20485;-76
2022/05/03 01:26:36;;;;;;;1.50;1.10;;;11.50;92.10;;;;;;5042233;28;20465;-75
2022/05/03 01:29:25;;;;;;;1.50;1.10;;;11.40;91.80;;;;;;5046928;28;20473;-76
2022/05/03 01:31:58;;;;;;;1.50;1.10;;;11.40;91.50;;;;;;5049679;28;20512;-75
2022/05/03 01:34:27;;;;;;;1.50;1.10;;;11.30;92.00;;;;;;5044598;28;20486;-76
2022/05/03 01:37:20;;;;;;;1.47;1.10;;;11.30;92.40;;;;;;5044791;28;20902;-75
2022/05/03 01:40:04;;;;;;;1.50;1.10;;;11.20;92.50;;;;;;5048821;28;20457;-75
2022/05/03 01:43:00;;;;;;;1.47;1.00;;;11.20;93.20;;;;;;5048385;28;20486;-76
2022/05/03 01:45:34;;;;;;;1.50;1.20;;;11.20;93.60;;;;;;5033179;28;20487;-75
2022/05/03 01:48:20;;;;;;;1.50;1.10;;;11.20;93.20;;;;;;5049698;28;20457;-75
2022/05/03 01:50:54;;;;;;;1.47;1.10;;;11.10;93.20;;;;;;5041415;28;20458;-76
2022/05/03 01:53:31;;;;;;;1.50;1.10;;;11.10;93.30;;;;;;5050220;28;20464;-75
2022/05/03 01:56:21;;;;;;;1.47;1.10;;;11.10;93.50;;;;;;5047011;28;20513;-76
2022/05/03 01:59:14;;;;;;;1.47;1.10;;;11.00;93.40;;;;;;5035554;28;20466;-75
2022/05/03 02:01:53;;;;;;;1.43;1.10;;;11.00;93.70;;;;;;5037798;28;20577;-75
2022/05/03 02:04:33;;;;;;;1.50;1.10;;;11.00;93.70;;;;;;5041596;28;20573;-76
2022/05/03 02:07:07;;;;;;;1.50;1.10;;;10.90;94.10;;;;;;5048383;28;20481;-74
2022/05/03 02:09:51;;;;;;;1.50;1.10;;;10.90;93.90;;;;;;5055367;28;20458;-75
2022/05/03 02:12:20;;;;;;;1.50;1.10;;;10.90;94.00;;;;;;5044593;28;20467;-75
2022/05/03 02:14:51;;;;;;;1.43;1.03;;;10.90;94.10;;;;;;5045193;28;20495;-75
2022/05/03 02:17:43;;;;;;;1.47;1.10;;;10.80;94.10;;;;;;5043167;28;20537;-75
2022/05/03 02:20:22;;;;;;;1.40;1.10;;;10.80;94.30;;;;;;5052963;28;21034;-75
2022/05/03 02:23:10;;;;;;;1.43;1.10;;;10.80;94.20;;;;;;5053674;22;20499;-78
2022/05/03 02:26:11;;;;;;;1.47;1.10;;;10.80;93.80;;;;;;5031984;28;20470;-78
2022/05/03 02:28:42;;;;;;;1.47;1.10;;;10.80;93.90;;;;;;5030737;28;20498;-78
2022/05/03 02:31:13;;;;;;;1.47;1.00;;;10.70;94.20;;;;;;5032294;28;20466;-78
2022/05/03 02:33:49;;;;;;;1.43;1.10;;;10.70;94.50;;;;;;5013666;28;20475;-78
2022/05/03 02:36:18;;;;;;;1.50;1.10;;;10.70;94.70;;;;;;5014987;28;21097;-78
2022/05/03 02:38:53;;;;;;;1.50;1.10;;;10.70;94.40;;;;;;5009262;28;20471;-78
2022/05/03 02:41:21;;;;;;;1.47;1.10;;;10.70;94.60;;;;;;5010628;28;20463;-78
2022/05/03 02:43:49;;;;;;;1.50;1.10;;;10.60;94.70;;;;;;5010107;28;20488;-78
2022/05/03 02:46:39;;;;;;;1.50;1.10;;;10.60;94.30;;;;;;5014100;28;20831;-78
2022/05/03 02:49:15;;;;;;;1.47;1.20;;;10.60;94.80;;;;;;5011710;28;21045;-78
2022/05/03 02:51:51;;;;;;;1.47;1.10;;;10.50;94.60;;;;;;5011281;28;20492;-78
2022/05/03 02:54:30;;;;;;;1.47;1.10;;;10.50;94.70;;;;;;5012455;28;20462;-78
2022/05/03 02:57:08;;;;;;;1.50;1.20;;;10.50;95.10;;;;;;5012253;28;20464;-78
2022/05/03 03:02:36;;;;;;;1.50;1.20;;;10.40;95.10;;;;;;5009341;28;20610;-78
2022/05/03 03:05:07;;;;;;;1.50;1.20;;;10.40;95.10;;;;;;5010890;28;20456;-78
2022/05/03 03:07:44;;;;;;;1.47;1.10;;;10.40;95.10;;;;;;5016921;28;20491;-78
2022/05/03 03:10:20;;;;;;;1.47;1.17;;;10.40;95.10;;;;;;5011002;28;20468;-78
2022/05/03 03:12:55;;;;;;;1.50;1.10;;;10.30;95.60;;;;;;5016088;28;20475;-78
2022/05/03 03:15:29;;;;;;;1.43;1.10;;;10.30;95.40;;;;;;5011190;28;20976;-78
2022/05/03 03:17:58;;;;;;;1.50;1.10;;;10.30;95.30;;;;;;5020583;28;20487;-78
2022/05/03 03:20:27;;;;;;;1.50;1.30;;;10.30;95.20;;;;;;5008940;28;20496;-78
2022/05/03 03:22:54;;;;;;;1.50;1.10;;;10.30;95.30;;;;;;5014476;28;20487;-78
2022/05/03 03:25:22;;;;;;;1.50;1.10;;;10.20;95.20;;;;;;5011014;28;20460;-78
2022/05/03 03:27:52;;;;;;;1.43;1.10;;;10.20;95.30;;;;;;5012183;28;20464;-78
2022/05/03 03:30:20;;;;;;;1.47;1.17;;;10.20;95.40;;;;;;5010461;28;20499;-78
2022/05/03 03:32:48;;;;;;;1.47;1.20;;;10.10;95.30;;;;;;5012575;28;20488;-78
2022/05/03 03:35:16;;;;;;;1.50;1.20;;;10.10;95.40;;;;;;5010957;28;20487;-78
2022/05/03 03:37:46;;;;;;;1.43;1.10;;;10.10;96.00;;;;;;5011119;28;20627;-77
2022/05/03 03:40:14;;;;;;;1.50;1.17;;;10.10;95.60;;;;;;5009915;28;20464;-78
2022/05/03 03:42:43;;;;;;;1.50;1.10;;;10.00;95.60;;;;;;5008221;28;20486;-79
2022/05/03 03:45:11;;;;;;;1.47;1.10;;;10.00;95.60;;;;;;5004482;28;20492;-78
2022/05/03 03:47:39;;;;;;;1.50;1.20;;;10.00;95.80;;;;;;5009589;28;20843;-79
2022/05/03 03:50:07;;;;;;;1.50;1.20;;;10.00;96.10;;;;;;5009563;28;20456;-78
2022/05/03 03:52:35;;;;;;;1.50;1.40;;;10.00;96.00;;;;;;5009460;28;20480;-79
2022/05/03 03:55:05;;;;;;;1.50;1.10;;;10.00;95.60;;;;;;5011245;28;21228;-78
2022/05/03 03:57:32;;;;;;;1.47;1.10;;;9.90;96.10;;;;;;5011015;28;20994;-78
2022/05/03 03:59:59;;;;;;;1.47;1.20;;;10.00;96.00;;;;;;5010072;28;20471;-80
2022/05/03 04:02:27;;;;;;;1.50;1.20;;;9.90;95.90;;;;;;5015257;28;20600;-79
2022/05/03 04:04:55;;;;;;;1.47;1.10;;;9.90;96.20;;;;;;5010157;28;20487;-78
2022/05/03 04:07:22;;;;;;;1.50;1.20;;;9.90;96.10;;;;;;5010087;28;20467;-79
2022/05/03 04:09:48;;;;;;;1.50;1.10;;;9.90;96.20;;;;;;5009089;28;20606;-78
2022/05/03 04:12:20;;;;;;;1.47;1.10;;;9.90;96.30;;;;;;5007227;28;20488;-78
2022/05/03 04:14:47;;;;;;;1.50;1.20;;;9.90;96.50;;;;;;5010561;28;20863;-78
2022/05/03 04:17:14;;;;;;;1.47;1.20;;;9.80;96.70;;;;;;5013676;28;20471;-78
2022/05/03 04:19:41;;;;;;;1.50;1.17;;;9.80;96.70;;;;;;5008866;28;20472;-78
2022/05/03 04:22:23;;;;;;;1.50;1.10;;;9.80;96.60;;;;;;5009246;28;21023;-78
2022/05/03 04:24:50;;;;;;;1.40;1.00;;;9.80;96.90;;;;;;5010028;28;21166;-79
2022/05/03 04:27:18;;;;;;;1.50;1.20;;;9.80;96.80;;;;;;5012992;28;21301;-79
2022/05/03 04:29:45;;;;;;;1.47;1.10;;;9.80;96.50;;;;;;5006943;28;20908;-80
2022/05/03 04:32:12;;;;;;;1.47;1.20;;;9.80;97.00;;;;;;5012655;28;20774;-81
2022/05/03 04:34:39;;;;;;;1.47;1.10;;;9.80;96.80;;;;;;5011067;28;20464;-78
2022/05/03 04:37:06;;;;;;;1.50;1.10;;;9.80;96.90;;;;;;5014895;28;20486;-78
2022/05/03 04:39:32;;;;;;;1.50;1.20;;;9.80;96.70;;;;;;5014882;28;20612;-78
2022/05/03 04:41:59;;;;;;;1.50;1.20;;;9.90;96.80;;;;;;5009876;28;20618;-79
2022/05/03 04:44:28;;;;;;;1.43;1.20;;;9.90;96.70;;;;;;5016806;28;20511;-79
2022/05/03 04:46:55;;;;;;;1.50;1.20;;;9.90;96.50;;;;;;5015915;28;20468;-79
2022/05/03 04:49:21;;;;;;;1.50;1.10;;;9.90;96.60;;;;;;5008476;28;20487;-78
2022/05/03 04:51:49;;;;;;;1.50;1.20;;;9.90;96.50;;;;;;5005764;28;20524;-81
2022/05/03 04:54:15;;;;;;;1.50;1.20;;;9.90;96.80;;;;;;5004818;28;20465;-76
2022/05/03 04:56:49;;;;;;;1.50;1.20;;;9.90;96.30;;;;;;5005510;28;20487;-76
2022/05/03 04:59:16;;;;;;;1.50;1.10;;;10.00;96.50;;;;;;5010231;28;20902;-76
2022/05/03 05:01:44;;;;;;;1.50;1.10;;;10.00;96.50;;;;;;4998275;28;20488;-76
2022/05/03 05:04:10;;;;;;;1.47;1.10;;;10.10;96.40;;;;;;5001263;28;20675;-78
2022/05/03 05:06:37;;;;;;;1.47;1.10;;;10.10;96.20;;;;;;5004797;28;20463;-77
2022/05/03 05:09:04;;;;;;;1.50;1.30;;;10.20;95.90;;;;;;5006094;28;20725;-77
2022/05/03 05:11:31;;;;;;;1.50;1.10;;;10.20;95.80;;;;;;5003453;28;20472;-77
2022/05/03 05:13:57;;;;;;;1.47;1.13;;;10.30;95.90;;;;;;5004467;28;20463;-79
2022/05/03 05:16:24;;;;;;;1.50;1.17;;;10.40;95.70;;;;;;5001642;28;20475;-79
2022/05/03 05:18:52;;;;;;;1.50;1.10;;;10.50;95.50;;;;;;5015379;28;20986;-79
2022/05/03 05:21:19;;;;;;;1.50;1.20;;;10.60;95.50;;;;;;5006826;28;20483;-79
2022/05/03 05:23:46;;;;;;;1.50;1.20;;;10.70;95.00;;;;;;5004266;28;20500;-78
2022/05/03 05:26:12;;;;;;;1.50;1.20;;;10.80;94.90;;;;;;5004997;28;20568;-80
2022/05/03 05:28:39;;;;;;;1.43;1.10;;;10.90;94.40;;;;;;5005814;28;20468;-79
2022/05/03 05:31:06;;;;;;;1.50;1.10;;;11.00;94.20;;;;;;5008386;28;20551;-80
2022/05/03 05:33:33;;;;;;;1.50;1.20;;;11.10;94.10;;;;;;5005468;28;20579;-78
2022/05/03 05:36:01;;;;;;;1.50;1.30;;;11.30;93.50;;;;;;5005507;28;20468;-78
2022/05/03 05:38:28;;;;;;;1.43;1.00;;;11.40;93.30;;;;;;5006475;28;20526;-80
2022/05/03 05:40:55;;;;;;;1.50;1.10;;;11.60;93.30;;;;;;5002688;28;20485;-77
2022/05/03 05:43:22;;;;;;;1.50;1.10;;;11.80;92.60;;;;;;5003372;28;20488;-78
2022/05/03 05:45:49;;;;;;;1.47;1.10;;;11.90;91.90;;;;;;5006501;28;20488;-80
2022/05/03 05:48:16;;;;;;;3.53;3.23;;;12.10;91.50;;;;;;5009537;28;20904;-80
2022/05/03 05:50:43;;;;;;;1.43;1.10;;;12.20;91.10;;;;;;5001965;28;20964;-79
2022/05/03 05:55:55;;;;;;;1.50;1.10;;;12.60;89.60;;;;;;5011712;28;20505;-80
2022/05/03 05:58:22;;;;;;;1.50;1.00;;;12.70;89.10;;;;;;5004718;28;20556;-79
2022/05/03 06:00:49;;;;;;;1.47;1.00;;;12.80;88.80;;;;;;5006013;28;20833;-80
2022/05/03 06:03:16;;;;;;;1.50;1.10;;;12.90;88.40;;;;;;5007583;28;20867;-80
2022/05/03 06:05:43;;;;;;;1.50;1.00;;;13.10;87.90;;;;;;5007869;28;20599;-79
2022/05/03 06:08:11;;;;;;;1.50;1.00;;;13.30;87.30;;;;;;5005446;28;20470;-80
2022/05/03 06:10:39;;;;;;;1.50;1.10;;;13.40;86.90;;;;;;5004916;28;20472;-79
2022/05/03 06:13:06;;;;;;;1.43;1.00;;;13.50;85.50;;;;;;5009399;28;21082;-80
2022/05/03 06:15:33;;;;;;;1.50;1.00;;;13.50;85.00;;;;;;5010012;28;20479;-79
2022/05/03 06:18:01;;;;;;;1.50;1.00;;;13.60;85.30;;;;;;5008873;28;20499;-79
2022/05/03 06:20:28;;;;;;;1.43;1.00;;;13.60;85.10;;;;;;5006659;28;20499;-79
2022/05/03 06:22:55;;;;;;;1.50;1.00;;;13.70;84.90;;;;;;5008629;28;20503;-79
2022/05/03 06:25:24;;;;;;;1.47;1.00;;;13.80;84.70;;;;;;5009836;28;20488;-78
2022/05/03 06:27:50;;;;;;;1.50;1.20;;;13.90;84.60;;;;;;5004319;28;20941;-77
2022/05/03 06:30:17;;;;;;;1.50;1.00;;;14.00;84.70;;;;;;5002118;28;21006;-78
2022/05/03 06:32:45;;;;;;;1.47;1.00;;;14.20;83.40;;;;;;5006981;28;20487;-77
2022/05/03 06:35:12;;;;;;;1.43;1.00;;;14.30;83.40;;;;;;5006456;28;20464;-79
2022/05/03 06:37:41;;;;;;;1.47;0.97;;;14.40;83.40;;;;;;5007826;28;20816;-78
2022/05/03 06:40:09;;;;;;;1.50;1.00;;;14.60;83.40;;;;;;5005539;28;20468;-79
2022/05/03 06:42:38;;;;;;;1.43;0.90;;;14.80;82.10;;;;;;5011363;28;20491;-79
2022/05/03 06:45:07;;;;;;;1.50;1.00;;;14.80;81.70;;;;;;5007227;28;20575;-79
2022/05/03 06:47:34;;;;;;;1.50;1.00;;;15.00;81.50;;;;;;5007383;28;20468;-79
2022/05/03 06:50:01;;;;;;;1.50;1.00;;;15.10;80.60;;;;;;5004050;28;20471;-80
2022/05/03 06:52:28;;;;;;;1.50;1.00;;;15.20;80.20;;;;;;5010680;28;21302;-79
2022/05/03 06:54:55;;;;;;;1.47;0.93;;;15.30;80.10;;;;;;5014201;28;20669;-79
2022/05/03 06:57:22;;;;;;;1.47;0.90;;;15.40;79.20;;;;;;5014817;28;20544;-80
2022/05/03 06:59:50;;;;;;;1.47;0.90;;;15.50;78.80;;;;;;5014996;28;20468;-82
2022/05/03 07:02:17;;;;;;;1.43;0.90;;;15.40;78.30;;;;;;5020647;28;20887;-81
2022/05/03 07:04:44;;;;;;;1.47;1.00;;;15.40;78.60;;;;;;5020401;28;20488;-80
2022/05/03 07:07:13;;;;;;;1.47;0.90;;;15.50;78.50;;;;;;5017453;28;20489;-79
2022/05/03 07:09:41;;;;;;;1.47;1.00;;;15.50;78.90;;;;;;5014303;28;21353;-79
2022/05/03 07:12:09;;;;;;;1.50;0.90;;;15.70;78.70;;;;;;5008577;28;20495;-76
2022/05/03 07:14:36;;;;;;;1.43;0.90;;;15.80;78.00;;;;;;5012252;28;20466;-80
2022/05/03 07:17:05;;;;;;;1.50;1.00;;;15.90;77.70;;;;;;5011321;28;21062;-77
2022/05/03 07:25:00;;;;;;;1.47;0.90;;;16.50;76.90;;;;;;5010753;28;20550;-78
2022/05/03 07:27:27;;;;;;;1.50;0.90;;;16.70;75.70;;;;;;5013464;28;20468;-77
2022/05/03 07:29:54;;;;;;;1.50;1.00;;;16.70;75.90;;;;;;5011118;28;20520;-79
2022/05/03 07:32:22;;;;;;;1.43;0.93;;;16.80;75.40;;;;;;5007461;28;20492;-79
2022/05/03 07:34:49;;;;;;;1.50;1.00;;;17.00;75.60;;;;;;5008630;28;20479;-79
2022/05/03 07:37:16;;;;;;;1.80;1.37;;;17.10;75.60;;;;;;5009565;28;20502;-79
2022/05/03 07:39:43;;;;;;;1.50;0.93;;;17.30;74.70;;;;;;5007877;28;20556;-81
2022/05/03 07:42:09;;;;;;;1.50;0.93;;;17.40;74.00;;;;;;5008708;28;20487;-79
2022/05/03 07:44:36;;;;;;;1.47;0.90;;;17.50;73.30;;;;;;5005299;28;21115;-79
2022/05/03 07:47:03;;;;;;;1.47;0.90;;;17.60;73.00;;;;;;5006935;28;20495;-77
2022/05/03 07:49:31;;;;;;;1.50;0.93;;;17.70;73.30;;;;;;5004846;28;20476;-77
2022/05/03 07:51:58;;;;;;;1.47;1.00;;;17.70;71.60;;;;;;5006598;28;20491;-77
2022/05/03 07:54:25;;;;;;;1.47;0.90;;;17.70;71.60;;;;;;5005624;28;20460;-78
2022/05/03 07:56:52;;;;;;;1.50;0.90;;;17.80;72.50;;;;;;5005808;28;20467;-78
2022/05/03 07:59:21;;;;;;;1.50;0.90;;;18.00;72.10;;;;;;5006180;28;20464;-79
2022/05/03 08:01:48;;;;;;;1.47;0.90;;;18.10;72.50;;;;;;5006188;28;21094;-78
2022/05/03 08:04:14;;;;;;;1.43;0.90;;;18.20;72.40;;;;;;5006597;28;20470;-78
2022/05/03 08:06:42;;;;;;;1.50;1.20;;;18.30;71.10;;;;;;5008748;28;20479;-78
2022/05/03 08:09:10;;;;;;;1.40;0.90;;;18.40;71.20;;;;;;5010398;28;20511;-77
2022/05/03 08:11:37;;;;;;;1.43;0.90;;;18.60;71.50;;;;;;5003645;28;20497;-75
2022/05/03 08:14:04;;;;;;;1.47;0.90;;;18.70;69.80;;;;;;5005663;28;21123;-76
2022/05/03 08:16:32;;;;;;;1.50;0.90;;;18.80;69.60;;;;;;5007968;28;21765;-75
2022/05/03 08:18:59;;;;;;;1.43;0.90;;;18.90;70.10;;;;;;5005716;28;20590;-76
2022/05/03 08:21:26;;;;;;;1.50;0.90;;;19.10;69.90;;;;;;5005061;28;20462;-76
2022/05/03 08:23:54;;;;;;;1.47;0.90;;;19.30;68.90;;;;;;5008677;28;20475;-76
2022/05/03 08:26:21;;;;;;;1.47;0.90;;;19.40;69.40;;;;;;4999149;28;20491;-76
2022/05/03 08:28:48;;;;;;;1.47;0.90;;;19.50;68.30;;;;;;5039425;22;20507;-77
2022/05/03 08:31:14;;;;;;;1.43;0.90;;;19.60;67.10;;;;;;5023872;28;20474;-76
2022/05/03 08:33:41;;;;;;;1.47;1.00;;;19.60;67.50;;;;;;5024559;28;20487;-76
2022/05/03 08:36:08;;;;;;;1.50;0.90;;;19.70;68.90;;;;;;5029744;28;20463;-78
2022/05/03 08:44:05;;;;;;;1.43;0.90;;;20.10;66.60;;;;;;5023090;28;20660;-75
2022/05/03 08:46:33;;;;;;;1.50;0.90;;;20.20;65.20;;;;;;5026895;28;20598;-76
2022/05/03 08:49:02;;;;;;;1.43;0.90;;;20.30;65.20;;;;;;5021593;28;20591;-76
2022/05/03 08:51:31;;;;;;;1.47;0.90;;;20.40;66.00;;;;;;5024853;28;20467;-76
2022/05/03 08:53:59;;;;;;;1.47;0.90;;;20.60;65.60;;;;;;5027789;28;20469;-76
2022/05/03 08:56:27;;;;;;;1.43;0.90;;;20.70;64.40;;;;;;5026773;28;20489;-77
2022/05/03 08:58:55;;;;;;;1.50;0.90;;;20.70;64.10;;;;;;5020305;28;21202;-77
2022/05/03 09:01:24;;;;;;;1.47;0.90;;;20.70;65.00;;;;;;5026805;28;21009;-77
2022/05/03 09:03:51;;;;;;;1.47;0.87;;;20.80;65.80;;;;;;5028053;28;20489;-77
2022/05/03 09:06:19;;;;;;;1.47;0.90;;;20.90;65.30;;;;;;5025655;28;21064;-78
2022/05/03 09:08:51;;;;;;;1.43;0.87;;;21.10;64.40;;;;;;5029160;28;20525;-78
2022/05/03 09:11:19;;;;;;;1.50;0.90;;;21.10;64.00;;;;;;5027493;28;20467;-76
2022/05/03 09:13:48;;;;;;;1.50;1.00;;;21.30;63.80;;;;;;5026150;28;20827;-78
2022/05/03 09:16:16;;;;;;;1.50;0.90;;;21.40;62.70;;;;;;5026269;28;20463;-76
2022/05/03 09:18:44;;;;;;;1.47;0.90;;;21.30;62.60;;;;;;5026654;28;20511;-75
2022/05/03 09:24:08;;;;;;;1.40;0.90;;;21.40;63.10;;;;;;5027670;28;20454;-77
2022/05/03 09:26:37;;;;;;;1.47;0.90;;;21.50;61.30;;;;;;5024486;28;20488;-76
2022/05/03 09:29:08;;;;;;;1.50;1.03;;;21.50;61.20;;;;;;5027849;28;20520;-75
2022/05/03 09:31:35;;;;;;;1.43;0.80;;;21.60;61.10;;;;;;5022845;28;20983;-78
2022/05/03 09:34:04;;;;;;;1.47;0.90;;;21.70;62.30;;;;;;5025146;28;20463;-76
2022/05/03 09:36:43;;;;;;;1.43;0.90;;;21.80;61.00;;;;;;5026858;28;21022;-77
2022/05/03 09:39:22;;;;;;;1.50;0.90;;;21.90;61.50;;;;;;5025303;28;21019;-76
2022/05/03 09:42:07;;;;;;;1.43;0.90;;;22.10;61.00;;;;;;5025829;28;20495;-77
2022/05/03 09:44:37;;;;;;;1.47;0.90;;;22.20;61.20;;;;;;5024594;28;20467;-76
2022/05/03 09:47:07;;;;;;;1.60;1.20;;;22.20;60.70;;;;;;5023729;28;20459;-75
2022/05/03 09:49:36;;;;;;;1.60;1.33;;;22.40;60.30;;;;;;5021103;28;20495;-75
2022/05/03 09:52:03;;;;;;;1.50;0.90;;;22.60;60.40;;;;;;5020612;28;20463;-76
2022/05/03 09:54:45;;;;;;;1.50;0.90;;;22.80;59.10;;;;;;5023960;28;20459;-76
2022/05/03 09:57:17;;;;;;;1.47;0.87;;;22.90;59.00;;;;;;5025486;28;21195;-74
2022/05/03 09:59:47;;;;;;;1.43;0.80;;;22.90;59.50;;;;;;5027159;28;20467;-77
2022/05/03 10:02:16;;;;;;;1.43;0.80;;;23.00;58.30;;;;;;5025055;28;20470;-76
2022/05/03 10:04:44;;;;;;;3.83;1.33;;;23.10;58.50;;;;;;5023676;28;20769;-74
2022/05/03 10:07:11;;;;;;;1.50;0.90;;;23.20;58.30;;;;;;5023868;28;20462;-75
2022/05/03 10:09:39;;;;;;;1.47;0.87;;;23.30;58.30;;;;;;5023289;28;20466;-75
2022/05/03 10:12:08;;;;;;;1.43;0.80;;;23.30;58.70;;;;;;5024297;28;20463;-75
2022/05/03 10:14:35;;;;;;;1.60;1.27;;;23.50;58.30;;;;;;5024583;28;20844;-73
2022/05/03 10:22:40;;;;;;;1.47;0.80;;;23.60;58.20;;;;;;5022780;28;20512;-74
2022/05/03 10:25:08;;;;;;;1.40;0.80;;;23.80;59.50;;;;;;5024105;28;20821;-75
2022/05/03 10:27:54;;;;;;;1.50;1.10;;;23.90;58.20;;;;;;5024053;28;20502;-74
2022/05/03 10:30:23;;;;;;;1.40;0.80;;;24.10;59.50;;;;;;5026754;28;21265;-74
2022/05/03 10:33:24;;;;;;;1.40;0.90;;;24.10;56.70;;;;;;5024392;28;20463;-73
2022/05/03 10:35:52;;;;;;;1.40;0.90;;;23.90;57.70;;;;;;5017114;28;20494;-74
2022/05/03 10:38:35;;;;;;;1.47;0.90;;;23.90;58.80;;;;;;5041605;28;20490;-74
2022/05/03 10:41:04;;;;;;;1.43;0.90;;;23.90;58.30;;;;;;5018013;28;20478;-74
2022/05/03 10:43:30;;;;;;;1.73;1.47;;;24.00;56.90;;;;;;5036252;28;20466;-73
2022/05/03 10:45:58;;;;;;;1.43;0.90;;;24.20;58.70;;;;;;5024985;28;20489;-74
2022/05/03 10:48:28;;;;;;;1.40;0.80;;;24.40;57.60;;;;;;5025259;28;20494;-74
2022/05/03 10:51:00;;;;;;;1.40;0.80;;;24.50;56.60;;;;;;5024723;28;20462;-73
2022/05/03 10:53:32;;;;;;;1.47;0.90;;;24.50;58.10;;;;;;5027116;28;20951;-73
2022/05/03 10:56:17;;;;;;;1.70;1.20;;;24.50;57.60;;;;;;5026060;28;20859;-74
2022/05/03 10:59:05;;;;;;;1.43;0.80;;;24.60;57.90;;;;;;5026093;28;20490;-74
2022/05/03 11:01:32;;;;;;;1.43;0.80;;;24.70;58.30;;;;;;5021771;28;20906;-74
2022/05/03 11:04:12;;;;;;;1.40;0.80;;;25.00;57.70;;;;;;5031549;28;20463;-74
2022/05/03 11:06:42;;;;;;;1.40;0.80;;;25.00;57.70;;;;;;5024608;28;20493;-74
2022/05/03 11:09:10;;;;;;;1.43;0.80;;;25.10;56.20;;;;;;5026900;28;20501;-74
2022/05/03 11:11:53;;;;;;;1.40;0.83;;;24.90;56.30;;;;;;5025512;28;20536;-74
2022/05/03 11:14:55;;;;;;;1.50;0.80;;;24.90;56.30;;;;;;5026464;28;20844;-74
2022/05/03 11:17:23;;;;;;;1.40;0.80;;;24.90;56.50;;;;;;5023406;28;20732;-74
2022/05/03 11:19:59;;;;;;;1.47;0.90;;;25.00;56.00;;;;;;5029392;28;20458;-73
2022/05/03 11:22:29;;;;;;;1.50;1.03;;;24.90;56.30;;;;;;5026099;28;20545;-74
2022/05/03 11:24:58;;;;;;;1.43;0.80;;;25.00;56.30;;;;;;5026194;28;20463;-73
2022/05/03 11:27:26;;;;;;;1.40;0.80;;;25.00;54.80;;;;;;5026000;28;20897;-74
2022/05/03 11:29:57;;;;;;;1.40;0.90;;;25.00;55.90;;;;;;5025318;28;20469;-73
2022/05/03 11:32:33;;;;;;;1.47;0.80;;;25.10;56.10;;;;;;5022659;28;20842;-74
2022/05/03 11:35:07;;;;;;;1.43;0.90;;;25.10;56.30;;;;;;5021134;28;20561;-74
2022/05/03 11:37:37;;;;;;;1.50;0.80;;;25.30;56.80;;;;;;5021006;28;20488;-73
2022/05/03 11:40:07;;;;;;;1.40;0.90;;;25.30;54.40;;;;;;5020771;28;20502;-74
2022/05/03 11:42:38;;;;;;;1.43;0.80;;;25.40;55.50;;;;;;5018991;28;20477;-74
2022/05/03 11:45:06;;;;;;;1.40;0.80;;;25.10;54.50;;;;;;5016667;28;20471;-73
2022/05/03 11:47:36;;;;;;;1.40;0.80;;;24.90;55.10;;;;;;5021031;28;20708;-74
2022/05/03 11:50:04;;;;;;;1.47;0.83;;;24.90;56.80;;;;;;5018342;28;21020;-74
2022/05/03 11:58:02;;;;;;;1.40;0.90;;;25.10;56.10;;;;;;5023171;28;20556;-74
2022/05/03 12:00:28;;;;;;;1.40;0.80;;;25.10;55.80;;;;;;5022715;28;20463;-74
2022/05/03 12:03:00;;;;;;;1.40;0.87;;;25.00;56.10;;;;;;5023099;28;20993;-74
2022/05/03 12:05:27;;;;;;;1.50;0.90;;;25.00;54.70;;;;;;5023401;28;20458;-74
2022/05/03 12:07:55;;;;;;;1.50;1.00;;;25.00;54.50;;;;;;5027855;28;20912;-73
2022/05/03 12:10:26;;;;;;;1.43;0.80;;;25.20;56.10;;;;;;5019990;28;20470;-74
2022/05/03 12:13:10;;;;;;;1.47;0.90;;;25.40;56.70;;;;;;5020799;28;20459;-74
2022/05/03 12:15:41;;;;;;;1.50;0.90;;;25.60;54.60;;;;;;5019527;28;21078;-73
2022/05/03 12:18:15;;;;;;;1.47;0.90;;;25.50;54.00;;;;;;5020248;28;20490;-72
2022/05/03 12:20:47;;;;;;;1.50;0.90;;;25.40;53.60;;;;;;5021277;28;20516;-74
2022/05/03 12:23:18;;;;;;;1.40;0.80;;;25.30;55.50;;;;;;5009905;28;20512;-74
2022/05/03 12:25:48;;;;;;;1.43;0.90;;;25.50;54.70;;;;;;5023530;28;20486;-74
2022/05/03 12:28:15;;;;;;;1.47;0.80;;;25.60;56.00;;;;;;5023676;28;20572;-74
2022/05/03 12:30:43;;;;;;;1.43;0.80;;;25.70;55.30;;;;;;5023448;28;20475;-73
2022/05/03 12:33:14;;;;;;;1.40;0.80;;;25.80;54.20;;;;;;5020966;28;20473;-74
2022/05/03 12:35:43;;;;;;;1.47;0.90;;;25.80;53.40;;;;;;5019302;28;20476;-74
2022/05/03 12:38:18;;;;;;;1.43;0.80;;;25.70;53.70;;;;;;5021800;28;20540;-73
2022/05/03 12:40:48;;;;;;;1.43;0.90;;;25.50;54.70;;;;;;5017009;28;20966;-73
2022/05/03 12:43:17;;;;;;;1.40;0.80;;;25.60;54.30;;;;;;5023435;28;20890;-72
2022/05/03 12:45:59;;;;;;;1.47;0.80;;;25.60;54.80;;;;;;5019517;28;20890;-74
2022/05/03 12:48:26;;;;;;;1.47;0.90;;;25.60;54.40;;;;;;5019737;28;20498;-75
2022/05/03 12:50:53;;;;;;;1.47;0.80;;;25.80;54.10;;;;;;5018206;28;20502;-74
2022/05/03 12:53:24;;;;;;;1.47;0.83;;;25.80;55.70;;;;;;5023294;28;20466;-73
2022/05/03 12:55:53;;;;;;;1.50;1.00;;;25.80;53.70;;;;;;5023568;28;21100;-74
2022/05/03 12:58:22;;;;;;;1.43;0.90;;;25.60;55.80;;;;;;5023163;28;20571;-75
2022/05/03 13:00:49;;;;;;;1.47;0.80;;;25.50;52.60;;;;;;5022813;28;21193;-74
2022/05/03 13:03:16;;;;;;;1.43;0.80;;;25.20;54.20;;;;;;5019391;28;20463;-75
2022/05/03 13:05:43;;;;;;;1.40;0.80;;;25.30;54.80;;;;;;5022876;28;20463;-74
2022/05/03 13:08:10;;;;;;;1.43;0.80;;;25.40;54.90;;;;;;5022621;28;20486;-74
2022/05/03 13:10:38;;;;;;;1.43;0.90;;;25.40;54.50;;;;;;5022352;28;20955;-74
2022/05/03 13:13:06;;;;;;;1.43;0.90;;;25.20;54.80;;;;;;5020688;28;20466;-74
2022/05/03 13:15:33;;;;;;;1.43;0.90;;;25.40;55.60;;;;;;5023250;28;20466;-75
2022/05/03 13:18:00;;;;;;;1.50;1.10;;;25.20;53.10;;;;;;5027116;28;20897;-74
2022/05/03 13:20:28;;;;;;;1.43;0.90;;;25.00;56.10;;;;;;5020868;28;20493;-74
2022/05/03 13:22:55;;;;;;;1.40;0.80;;;25.20;55.50;;;;;;5021530;28;20471;-74
2022/05/03 13:25:22;;;;;;;1.40;0.80;;;25.20;55.20;;;;;;5021574;28;20609;-74
2022/05/03 13:27:49;;;;;;;1.43;0.90;;;25.10;53.60;;;;;;5020749;28;20490;-75
2022/05/03 13:30:17;;;;;;;1.40;0.80;;;25.20;53.80;;;;;;5017568;28;20474;-74
2022/05/03 13:32:44;;;;;;;1.50;0.90;;;25.40;53.50;;;;;;5021866;28;20469;-75
2022/05/03 13:35:11;;;;;;;1.80;1.00;;;25.40;53.70;;;;;;5021569;28;20843;-74
2022/05/03 13:40:33;;;;;;;1.50;0.90;;;25.80;54.30;;;;;;5020656;28;20675;-75